Altair — UBBP5 — position and weather

sailwx.info

Track history (hours):
 
Tides and Currents Weather Stations Pressure Air Temp Water Temp Dewpoint Dewpoint Depression Visibility Wind Speed Wind Dir Waves Ship Positions

Altair

Last reported at 2018-Jan-18 12:00 UTC. Time now 2018-Jan-18 12:06 UTC.
Position N 44°44' E 037°48'.

Length 24 m; draft 4.2 m.

Type: Tug. MMSI: 273396190.

Date/timePositionNaut miles runAvg speedWind from/ knotsBaromVisibWave heightAir tempDewpointWater temp
2018-Jan-18 12:00N 44°44' E 037°48'0 0.0
2018-Jan-18 11:30N 44°44' E 037°48'0 0.0
2018-Jan-18 11:00N 44°44' E 037°48'0 0.0
2018-Jan-18 10:30N 44°44' E 037°48'0 0.0
2018-Jan-18 10:00N 44°44' E 037°48'0 0.0
2018-Jan-18 09:30N 44°44' E 037°48'0 0.0
2018-Jan-18 09:00N 44°44' E 037°48'0 0.0
2018-Jan-18 08:30N 44°44' E 037°48'0 0.0
2018-Jan-18 08:00N 44°44' E 037°48'0 0.0
2018-Jan-18 07:30N 44°44' E 037°48'0 0.0
2018-Jan-18 07:00N 44°44' E 037°48'0 0.0
2018-Jan-18 06:30N 44°44' E 037°48'0 0.0
2018-Jan-18 06:00N 44°44' E 037°48'0 0.0
2018-Jan-18 05:30N 44°44' E 037°48'0 0.0
2018-Jan-18 05:00N 44°44' E 037°48'0 0.0
2018-Jan-18 04:30N 44°44' E 037°48'0 0.0
2018-Jan-18 04:00N 44°44' E 037°48'0 0.0
2018-Jan-18 03:30N 44°44' E 037°48'0 0.0
2018-Jan-18 03:00N 44°44' E 037°48'0 0.0
2018-Jan-18 02:30N 44°44' E 037°48'0 0.0
2018-Jan-18 02:00N 44°44' E 037°48'0 0.0
2018-Jan-18 01:30N 44°44' E 037°48'0 0.0
2018-Jan-18 01:00N 44°44' E 037°48'0 0.0
2018-Jan-18 00:00N 44°44' E 037°48'0 0.0
2018-Jan-17 23:57N 44°44' E 037°48'  
2018-Jan-12 15:00N 44°44' E 037°48'0 0.9
2018-Jan-12 14:30N 44°44' E 037°47'1 2.0
2018-Jan-12 14:01N 44°43' E 037°48'0 0.6
2018-Jan-12 13:31N 44°43' E 037°49'1 2.5
2018-Jan-12 13:00N 44°44' E 037°47'0 0.3
2018-Jan-12 12:31N 44°44' E 037°47'1 1.6
2018-Jan-12 12:00N 44°43' E 037°48'1 1.0
2018-Jan-12 11:31N 44°44' E 037°47'0 0.3
2018-Jan-12 11:01N 44°44' E 037°48'4 7.5
2018-Jan-12 10:31N 44°41' E 037°52'0 0.6
2018-Jan-12 10:01N 44°41' E 037°52'0 0.1
2018-Jan-12 09:31N 44°41' E 037°52'0 0.1
2018-Jan-12 09:00N 44°41' E 037°52'0 0.1
2018-Jan-12 08:31N 44°41' E 037°52'0 0.0
2018-Jan-12 08:01N 44°41' E 037°52'0 0.1
2018-Jan-12 07:31N 44°41' E 037°52'0 0.0
2018-Jan-12 07:00N 44°41' E 037°52'1 1.3
2018-Jan-12 06:30N 44°42' E 037°51'4 7.3
2018-Jan-12 06:01N 44°44' E 037°47'1 2.9
2018-Jan-12 05:30N 44°43' E 037°49'3 5.6
2018-Jan-12 05:00N 44°41' E 037°52'0 0.0
2018-Jan-12 04:31N 44°41' E 037°52'0 0.0
2018-Jan-12 04:01N 44°41' E 037°52'0 0.0
2018-Jan-12 03:30N 44°41' E 037°52'0 0.0
2018-Jan-12 03:01N 44°41' E 037°52'0 0.0
2018-Jan-12 02:30N 44°41' E 037°52'0 0.0
2018-Jan-12 02:00N 44°41' E 037°52'0 0.0
2018-Jan-12 01:31N 44°41' E 037°52'0 0.0
2018-Jan-12 01:01N 44°41' E 037°52'0 0.1
2018-Jan-12 00:31N 44°41' E 037°52'0 0.0
2018-Jan-12 00:01N 44°41' E 037°52'0 0.0
2018-Jan-11 23:31N 44°41' E 037°52'0 0.0
2018-Jan-11 23:01N 44°41' E 037°52'0 0.0
2018-Jan-11 22:31N 44°41' E 037°52'0 0.0
2018-Jan-11 22:01N 44°41' E 037°52'0 0.0
2018-Jan-11 21:31N 44°41' E 037°52'0 0.1
2018-Jan-11 21:00N 44°41' E 037°52'0 0.0
2018-Jan-11 20:31N 44°41' E 037°52'0 0.0
2018-Jan-11 20:01N 44°41' E 037°52'0 0.0
2018-Jan-11 19:30N 44°41' E 037°52'0 0.0
2018-Jan-11 19:00N 44°41' E 037°52'0 0.0
2018-Jan-11 18:31N 44°41' E 037°52'3 7.0
2018-Jan-11 18:00N 44°43' E 037°48'1 1.8
2018-Jan-11 17:30N 44°44' E 037°47'0 0.0
2018-Jan-11 17:00N 44°44' E 037°47'0 0.0
2018-Jan-11 16:30N 44°44' E 037°47'3 5.1
2018-Jan-11 16:00N 44°42' E 037°50'2 3.7
2018-Jan-11 15:30N 44°41' E 037°52'0 0.0
2018-Jan-11 15:00N 44°41' E 037°52'0 0.0
2018-Jan-11 14:30N 44°41' E 037°52'0 0.0
2018-Jan-11 14:00N 44°41' E 037°52'0 0.0
2018-Jan-11 13:30N 44°41' E 037°52'0 0.0
2018-Jan-11 13:00N 44°41' E 037°52'0 0.0
2018-Jan-11 12:30N 44°41' E 037°52'0 0.0
2018-Jan-11 12:00N 44°41' E 037°52'0 0.0
2018-Jan-11 11:30N 44°41' E 037°52'0 0.0
2018-Jan-11 11:00N 44°41' E 037°52'0 0.0
2018-Jan-11 10:30N 44°41' E 037°52'0 0.0
2018-Jan-11 10:00N 44°41' E 037°52'0 0.0
2018-Jan-11 09:30N 44°41' E 037°52'0 0.0
2018-Jan-11 09:00N 44°41' E 037°52'0 0.0
2018-Jan-11 08:30N 44°41' E 037°52'0 0.0
2018-Jan-11 08:00N 44°41' E 037°52'0 0.0
2018-Jan-11 07:30N 44°41' E 037°52'0 0.0
2018-Jan-11 07:00N 44°41' E 037°52'0 0.0
2018-Jan-11 06:30N 44°41' E 037°52'0 0.0
2018-Jan-11 06:00N 44°41' E 037°52'0 0.0
2018-Jan-11 05:31N 44°41' E 037°52'0 0.0
2018-Jan-11 05:00N 44°41' E 037°52'0 0.0
2018-Jan-11 04:31N 44°41' E 037°52'0 0.0
2018-Jan-11 04:01N 44°41' E 037°52'0 0.0
2018-Jan-11 03:31N 44°41' E 037°52'0 0.0
2018-Jan-11 03:00N 44°41' E 037°52'0 0.0
2018-Jan-11 02:31N 44°41' E 037°52'0 0.0
2018-Jan-11 02:00N 44°41' E 037°52'2 3.2
2018-Jan-11 01:30N 44°42' E 037°50'0 0.3
2018-Jan-11 01:00N 44°42' E 037°50'2 3.1
2018-Jan-11 00:30N 44°41' E 037°52'0 0.0
2018-Jan-11 00:00N 44°41' E 037°52'0 0.0
2018-Jan-10 23:30N 44°41' E 037°52'1 1.7
2018-Jan-10 23:00N 44°42' E 037°51'3 5.6
2018-Jan-10 22:31N 44°44' E 037°48'0 0.3
2018-Jan-10 22:01N 44°43' E 037°48'4 7.0
2018-Jan-10 21:30N 44°41' E 037°52'0 0.0
2018-Jan-10 21:00N 44°41' E 037°52'0 0.0
2018-Jan-10 20:30N 44°41' E 037°52'0 0.0
2018-Jan-10 20:01N 44°41' E 037°52'2 3.4
2018-Jan-10 19:31N 44°43' E 037°50'0 0.7
2018-Jan-10 19:01N 44°43' E 037°50'0 0.4
2018-Jan-10 18:30N 44°43' E 037°50'1 2.7
2018-Jan-10 18:00N 44°41' E 037°51'1 1.0
2018-Jan-10 17:30N 44°41' E 037°52'0 0.0
2018-Jan-10 17:00N 44°41' E 037°52'0 0.0
2018-Jan-10 16:30N 44°41' E 037°52'0 0.0
2018-Jan-10 16:00N 44°41' E 037°52'0 0.0
2018-Jan-10 15:30N 44°41' E 037°52'0 0.0
2018-Jan-10 15:00N 44°41' E 037°52'0 0.0
2018-Jan-10 14:30N 44°41' E 037°52'0 0.0
2018-Jan-10 14:00N 44°41' E 037°52'0 0.0
2018-Jan-10 13:30N 44°41' E 037°52'0 0.0
2018-Jan-10 13:01N 44°41' E 037°52'0 0.0
2018-Jan-10 12:31N 44°41' E 037°52'0 0.0
2018-Jan-10 12:00N 44°41' E 037°52'0 0.0
2018-Jan-10 11:30N 44°41' E 037°52'0 0.0
2018-Jan-10 11:00N 44°41' E 037°52'0 0.0
2018-Jan-10 10:30N 44°41' E 037°52'0 0.0
2018-Jan-10 09:14N 44°41' E 037°52'0 0.0
2018-Jan-10 09:00N 44°41' E 037°52'0 0.0
2018-Jan-10 08:30N 44°41' E 037°52'2 3.4
2018-Jan-10 08:00N 44°42' E 037°50'3 5.4
2018-Jan-10 07:30N 44°44' E 037°47'0 0.6
2018-Jan-10 07:00N 44°44' E 037°47'1 2.9
2018-Jan-10 06:31N 44°43' E 037°49'3 5.6
2018-Jan-10 06:01N 44°41' E 037°52'0 0.0
2018-Jan-10 05:30N 44°41' E 037°52'0 0.0
2018-Jan-10 05:00N 44°41' E 037°52'0 0.0
2018-Jan-10 04:30N 44°41' E 037°52'0 0.0
2018-Jan-10 04:00N 44°41' E 037°52'0 0.0
2018-Jan-10 03:30N 44°41' E 037°52'0 0.0
2018-Jan-10 03:00N 44°41' E 037°52'0 0.0
2018-Jan-10 02:31N 44°41' E 037°52'0 0.0
2018-Jan-10 02:00N 44°41' E 037°52'0 0.0
2018-Jan-10 01:30N 44°41' E 037°52'0 0.0
2018-Jan-10 01:00N 44°41' E 037°52'0 0.0
2018-Jan-10 00:30N 44°41' E 037°52'0 0.0
2018-Jan-10 00:01N 44°41' E 037°52'0 0.0
2018-Jan-09 23:30N 44°41' E 037°52'0 0.0
2018-Jan-09 23:00N 44°41' E 037°52'2 3.7
2018-Jan-09 22:30N 44°42' E 037°50'0 0.0
2018-Jan-09 22:01N 44°42' E 037°50'1 2.1
2018-Jan-09 21:31N 44°41' E 037°50'2 3.0
2018-Jan-09 21:01N 44°41' E 037°52'0 0.0
2018-Jan-09 20:30N 44°41' E 037°52'0 0.0
2018-Jan-09 20:00N 44°41' E 037°52'0 0.0
2018-Jan-09 19:31N 44°41' E 037°52'0 0.0
2018-Jan-09 19:00N 44°41' E 037°52'0 0.0
2018-Jan-09 18:30N 44°41' E 037°52'0 0.0
2018-Jan-09 18:01N 44°41' E 037°52'0 0.0
2018-Jan-09 17:30N 44°41' E 037°52'1 2.0
2018-Jan-09 17:00N 44°42' E 037°51'3 6.6
2018-Jan-09 16:30N 44°44' E 037°47'0 0.7
2018-Jan-09 16:00N 44°44' E 037°48'1 1.9
2018-Jan-09 15:31N 44°43' E 037°48'3 5.6
2018-Jan-09 15:01N 44°41' E 037°52'0 0.1
2018-Jan-09 14:30N 44°41' E 037°52'0 0.0
2018-Jan-09 14:00N 44°41' E 037°52'0 0.0
2018-Jan-09 13:31N 44°41' E 037°52'0 0.0
2018-Jan-09 13:01N 44°41' E 037°52'0 0.0
2018-Jan-09 12:30N 44°41' E 037°52'1 2.3
2018-Jan-09 12:00N 44°42' E 037°50'1 1.4
2018-Jan-09 11:30N 44°43' E 037°50'0 0.0
2018-Jan-09 11:00N 44°43' E 037°50'0 0.2
2018-Jan-09 10:31N 44°43' E 037°50'1 2.5
2018-Jan-09 10:01N 44°41' E 037°50'1 2.4
2018-Jan-09 09:30N 44°41' E 037°52'0 0.0
2018-Jan-09 09:00N 44°41' E 037°52'0 0.0
2018-Jan-09 08:30N 44°41' E 037°52'0 0.0
2018-Jan-09 08:01N 44°41' E 037°52'0 0.0
2018-Jan-09 07:30N 44°41' E 037°52'0 0.0
2018-Jan-09 07:00N 44°41' E 037°52'0 0.0
2018-Jan-09 06:31N 44°41' E 037°52'0 0.0
2018-Jan-09 06:01N 44°41' E 037°52'1 2.7
2018-Jan-09 05:30N 44°42' E 037°50'0 0.0
2018-Jan-09 05:01N 44°42' E 037°50'0 0.5
2018-Jan-09 04:30N 44°42' E 037°50'1 2.0
2018-Jan-09 04:00N 44°41' E 037°50'0 0.5
2018-Jan-09 03:30N 44°41' E 037°50'2 1.0
2018-Jan-09 01:48N 44°42' E 037°48'0 0.0
2018-Jan-09 01:30N 44°42' E 037°48'0 0.0
2018-Jan-09 01:00N 44°42' E 037°48'0 0.0
2018-Jan-09 00:30N 44°42' E 037°48'0 0.0
2018-Jan-09 00:00N 44°42' E 037°48'0 0.0
2018-Jan-08 23:30N 44°42' E 037°48'0 0.0
2018-Jan-08 23:00N 44°42' E 037°48'0 0.0
2018-Jan-08 22:30N 44°42' E 037°48'0 0.0
2018-Jan-08 22:00N 44°42' E 037°48'0 0.0
2018-Jan-08 21:30N 44°42' E 037°48'0 0.0
2018-Jan-08 21:00N 44°42' E 037°48'0 0.0
2018-Jan-08 20:30N 44°42' E 037°48'0 0.0
2018-Jan-08 20:00N 44°42' E 037°48'0 0.0
2018-Jan-08 19:30N 44°42' E 037°48'0 0.0
2018-Jan-08 19:00N 44°42' E 037°48'0 0.0
2018-Jan-08 18:30N 44°42' E 037°48'0 0.0
2018-Jan-08 18:00N 44°42' E 037°48'0 0.0
2018-Jan-08 17:30N 44°42' E 037°48'0 0.0
2018-Jan-08 17:00N 44°42' E 037°48'0 0.0
2018-Jan-08 16:30N 44°42' E 037°48'0 0.0
2018-Jan-08 16:00N 44°42' E 037°48'0 0.0
2018-Jan-08 15:30N 44°42' E 037°48'0 0.0
2018-Jan-08 15:00N 44°42' E 037°48'0 0.0
2018-Jan-08 14:31N 44°42' E 037°48'0 0.0
2018-Jan-08 14:00N 44°42' E 037°48'0 0.0
2018-Jan-08 13:30N 44°42' E 037°48'0 0.0
2018-Jan-08 13:00N 44°42' E 037°48'0 0.0
2018-Jan-08 12:30N 44°42' E 037°48'  
Track history (hours):
 
Tides and Currents Weather Stations Pressure Air Temp Water Temp Dewpoint Dewpoint Depression Visibility Wind Speed Wind Dir Waves Ship Positions

Altair

Last reported at 2018-Jan-18 12:00 UTC. Time now 2018-Jan-18 12:06 UTC.
Position N 44°44' E 037°48'.

Length 24 m; draft 4.2 m.

Type: Tug. MMSI: 273396190.

Date/timePositionNaut miles runAvg speedWind from/ knotsBaromVisibWave heightAir tempDewpointWater temp
2018-Jan-18 12:00N 44°44' E 037°48'0 0.0
2018-Jan-18 11:30N 44°44' E 037°48'0 0.0
2018-Jan-18 11:00N 44°44' E 037°48'0 0.0
2018-Jan-18 10:30N 44°44' E 037°48'0 0.0
2018-Jan-18 10:00N 44°44' E 037°48'0 0.0
2018-Jan-18 09:30N 44°44' E 037°48'0 0.0
2018-Jan-18 09:00N 44°44' E 037°48'0 0.0
2018-Jan-18 08:30N 44°44' E 037°48'0 0.0
2018-Jan-18 08:00N 44°44' E 037°48'0 0.0
2018-Jan-18 07:30N 44°44' E 037°48'0 0.0
2018-Jan-18 07:00N 44°44' E 037°48'0 0.0
2018-Jan-18 06:30N 44°44' E 037°48'0 0.0
2018-Jan-18 06:00N 44°44' E 037°48'0 0.0
2018-Jan-18 05:30N 44°44' E 037°48'0 0.0
2018-Jan-18 05:00N 44°44' E 037°48'0 0.0
2018-Jan-18 04:30N 44°44' E 037°48'0 0.0
2018-Jan-18 04:00N 44°44' E 037°48'0 0.0
2018-Jan-18 03:30N 44°44' E 037°48'0 0.0
2018-Jan-18 03:00N 44°44' E 037°48'0 0.0
2018-Jan-18 02:30N 44°44' E 037°48'0 0.0
2018-Jan-18 02:00N 44°44' E 037°48'0 0.0
2018-Jan-18 01:30N 44°44' E 037°48'0 0.0
2018-Jan-18 01:00N 44°44' E 037°48'0 0.0
2018-Jan-18 00:00N 44°44' E 037°48'0 0.0
2018-Jan-17 23:57N 44°44' E 037°48'  
2018-Jan-12 15:00N 44°44' E 037°48'0 0.9
2018-Jan-12 14:30N 44°44' E 037°47'1 2.0
2018-Jan-12 14:01N 44°43' E 037°48'0 0.6
2018-Jan-12 13:31N 44°43' E 037°49'1 2.5
2018-Jan-12 13:00N 44°44' E 037°47'0 0.3
2018-Jan-12 12:31N 44°44' E 037°47'1 1.6
2018-Jan-12 12:00N 44°43' E 037°48'1 1.0
2018-Jan-12 11:31N 44°44' E 037°47'0 0.3
2018-Jan-12 11:01N 44°44' E 037°48'4 7.5
2018-Jan-12 10:31N 44°41' E 037°52'0 0.6
2018-Jan-12 10:01N 44°41' E 037°52'0 0.1
2018-Jan-12 09:31N 44°41' E 037°52'0 0.1
2018-Jan-12 09:00N 44°41' E 037°52'0 0.1
2018-Jan-12 08:31N 44°41' E 037°52'0 0.0
2018-Jan-12 08:01N 44°41' E 037°52'0 0.1
2018-Jan-12 07:31N 44°41' E 037°52'0 0.0
2018-Jan-12 07:00N 44°41' E 037°52'1 1.3
2018-Jan-12 06:30N 44°42' E 037°51'4 7.3
2018-Jan-12 06:01N 44°44' E 037°47'1 2.9
2018-Jan-12 05:30N 44°43' E 037°49'3 5.6
2018-Jan-12 05:00N 44°41' E 037°52'0 0.0
2018-Jan-12 04:31N 44°41' E 037°52'0 0.0
2018-Jan-12 04:01N 44°41' E 037°52'0 0.0
2018-Jan-12 03:30N 44°41' E 037°52'0 0.0
2018-Jan-12 03:01N 44°41' E 037°52'0 0.0
2018-Jan-12 02:30N 44°41' E 037°52'0 0.0
2018-Jan-12 02:00N 44°41' E 037°52'0 0.0
2018-Jan-12 01:31N 44°41' E 037°52'0 0.0
2018-Jan-12 01:01N 44°41' E 037°52'0 0.1
2018-Jan-12 00:31N 44°41' E 037°52'0 0.0
2018-Jan-12 00:01N 44°41' E 037°52'0 0.0
2018-Jan-11 23:31N 44°41' E 037°52'0 0.0
2018-Jan-11 23:01N 44°41' E 037°52'0 0.0
2018-Jan-11 22:31N 44°41' E 037°52'0 0.0
2018-Jan-11 22:01N 44°41' E 037°52'0 0.0
2018-Jan-11 21:31N 44°41' E 037°52'0 0.1
2018-Jan-11 21:00N 44°41' E 037°52'0 0.0
2018-Jan-11 20:31N 44°41' E 037°52'0 0.0
2018-Jan-11 20:01N 44°41' E 037°52'0 0.0
2018-Jan-11 19:30N 44°41' E 037°52'0 0.0
2018-Jan-11 19:00N 44°41' E 037°52'0 0.0
2018-Jan-11 18:31N 44°41' E 037°52'3 7.0
2018-Jan-11 18:00N 44°43' E 037°48'1 1.8
2018-Jan-11 17:30N 44°44' E 037°47'0 0.0
2018-Jan-11 17:00N 44°44' E 037°47'0 0.0
2018-Jan-11 16:30N 44°44' E 037°47'3 5.1
2018-Jan-11 16:00N 44°42' E 037°50'2 3.7
2018-Jan-11 15:30N 44°41' E 037°52'0 0.0
2018-Jan-11 15:00N 44°41' E 037°52'0 0.0
2018-Jan-11 14:30N 44°41' E 037°52'0 0.0
2018-Jan-11 14:00N 44°41' E 037°52'0 0.0
2018-Jan-11 13:30N 44°41' E 037°52'0 0.0
2018-Jan-11 13:00N 44°41' E 037°52'0 0.0
2018-Jan-11 12:30N 44°41' E 037°52'0 0.0
2018-Jan-11 12:00N 44°41' E 037°52'0 0.0
2018-Jan-11 11:30N 44°41' E 037°52'0 0.0
2018-Jan-11 11:00N 44°41' E 037°52'0 0.0
2018-Jan-11 10:30N 44°41' E 037°52'0 0.0
2018-Jan-11 10:00N 44°41' E 037°52'0 0.0
2018-Jan-11 09:30N 44°41' E 037°52'0 0.0
2018-Jan-11 09:00N 44°41' E 037°52'0 0.0
2018-Jan-11 08:30N 44°41' E 037°52'0 0.0
2018-Jan-11 08:00N 44°41' E 037°52'0 0.0
2018-Jan-11 07:30N 44°41' E 037°52'0 0.0
2018-Jan-11 07:00N 44°41' E 037°52'0 0.0
2018-Jan-11 06:30N 44°41' E 037°52'0 0.0
2018-Jan-11 06:00N 44°41' E 037°52'0 0.0
2018-Jan-11 05:31N 44°41' E 037°52'0 0.0
2018-Jan-11 05:00N 44°41' E 037°52'0 0.0
2018-Jan-11 04:31N 44°41' E 037°52'0 0.0
2018-Jan-11 04:01N 44°41' E 037°52'0 0.0
2018-Jan-11 03:31N 44°41' E 037°52'0 0.0
2018-Jan-11 03:00N 44°41' E 037°52'0 0.0
2018-Jan-11 02:31N 44°41' E 037°52'0 0.0
2018-Jan-11 02:00N 44°41' E 037°52'2 3.2
2018-Jan-11 01:30N 44°42' E 037°50'0 0.3
2018-Jan-11 01:00N 44°42' E 037°50'2 3.1
2018-Jan-11 00:30N 44°41' E 037°52'0 0.0
2018-Jan-11 00:00N 44°41' E 037°52'0 0.0
2018-Jan-10 23:30N 44°41' E 037°52'1 1.7
2018-Jan-10 23:00N 44°42' E 037°51'3 5.6
2018-Jan-10 22:31N 44°44' E 037°48'0 0.3
2018-Jan-10 22:01N 44°43' E 037°48'4 7.0
2018-Jan-10 21:30N 44°41' E 037°52'0 0.0
2018-Jan-10 21:00N 44°41' E 037°52'0 0.0
2018-Jan-10 20:30N 44°41' E 037°52'0 0.0
2018-Jan-10 20:01N 44°41' E 037°52'2 3.4
2018-Jan-10 19:31N 44°43' E 037°50'0 0.7
2018-Jan-10 19:01N 44°43' E 037°50'0 0.4
2018-Jan-10 18:30N 44°43' E 037°50'1 2.7
2018-Jan-10 18:00N 44°41' E 037°51'1 1.0
2018-Jan-10 17:30N 44°41' E 037°52'0 0.0
2018-Jan-10 17:00N 44°41' E 037°52'0 0.0
2018-Jan-10 16:30N 44°41' E 037°52'0 0.0
2018-Jan-10 16:00N 44°41' E 037°52'0 0.0
2018-Jan-10 15:30N 44°41' E 037°52'0 0.0
2018-Jan-10 15:00N 44°41' E 037°52'0 0.0
2018-Jan-10 14:30N 44°41' E 037°52'0 0.0
2018-Jan-10 14:00N 44°41' E 037°52'0 0.0
2018-Jan-10 13:30N 44°41' E 037°52'0 0.0
2018-Jan-10 13:01N 44°41' E 037°52'0 0.0
2018-Jan-10 12:31N 44°41' E 037°52'0 0.0
2018-Jan-10 12:00N 44°41' E 037°52'0 0.0
2018-Jan-10 11:30N 44°41' E 037°52'0 0.0
2018-Jan-10 11:00N 44°41' E 037°52'0 0.0
2018-Jan-10 10:30N 44°41' E 037°52'0 0.0
2018-Jan-10 09:14N 44°41' E 037°52'0 0.0
2018-Jan-10 09:00N 44°41' E 037°52'0 0.0
2018-Jan-10 08:30N 44°41' E 037°52'2 3.4
2018-Jan-10 08:00N 44°42' E 037°50'3 5.4
2018-Jan-10 07:30N 44°44' E 037°47'0 0.6
2018-Jan-10 07:00N 44°44' E 037°47'1 2.9
2018-Jan-10 06:31N 44°43' E 037°49'3 5.6
2018-Jan-10 06:01N 44°41' E 037°52'0 0.0
2018-Jan-10 05:30N 44°41' E 037°52'0 0.0
2018-Jan-10 05:00N 44°41' E 037°52'0 0.0
2018-Jan-10 04:30N 44°41' E 037°52'0 0.0
2018-Jan-10 04:00N 44°41' E 037°52'0 0.0
2018-Jan-10 03:30N 44°41' E 037°52'0 0.0
2018-Jan-10 03:00N 44°41' E 037°52'0 0.0
2018-Jan-10 02:31N 44°41' E 037°52'0 0.0
2018-Jan-10 02:00N 44°41' E 037°52'0 0.0
2018-Jan-10 01:30N 44°41' E 037°52'0 0.0
2018-Jan-10 01:00N 44°41' E 037°52'0 0.0
2018-Jan-10 00:30N 44°41' E 037°52'0 0.0
2018-Jan-10 00:01N 44°41' E 037°52'0 0.0
2018-Jan-09 23:30N 44°41' E 037°52'0 0.0
2018-Jan-09 23:00N 44°41' E 037°52'2 3.7
2018-Jan-09 22:30N 44°42' E 037°50'0 0.0
2018-Jan-09 22:01N 44°42' E 037°50'1 2.1
2018-Jan-09 21:31N 44°41' E 037°50'2 3.0
2018-Jan-09 21:01N 44°41' E 037°52'0 0.0
2018-Jan-09 20:30N 44°41' E 037°52'0 0.0
2018-Jan-09 20:00N 44°41' E 037°52'0 0.0
2018-Jan-09 19:31N 44°41' E 037°52'0 0.0
2018-Jan-09 19:00N 44°41' E 037°52'0 0.0
2018-Jan-09 18:30N 44°41' E 037°52'0 0.0
2018-Jan-09 18:01N 44°41' E 037°52'0 0.0
2018-Jan-09 17:30N 44°41' E 037°52'1 2.0
2018-Jan-09 17:00N 44°42' E 037°51'3 6.6
2018-Jan-09 16:30N 44°44' E 037°47'0 0.7
2018-Jan-09 16:00N 44°44' E 037°48'1 1.9
2018-Jan-09 15:31N 44°43' E 037°48'3 5.6
2018-Jan-09 15:01N 44°41' E 037°52'0 0.1
2018-Jan-09 14:30N 44°41' E 037°52'0 0.0
2018-Jan-09 14:00N 44°41' E 037°52'0 0.0
2018-Jan-09 13:31N 44°41' E 037°52'0 0.0
2018-Jan-09 13:01N 44°41' E 037°52'0 0.0
2018-Jan-09 12:30N 44°41' E 037°52'1 2.3
2018-Jan-09 12:00N 44°42' E 037°50'1 1.4
2018-Jan-09 11:30N 44°43' E 037°50'0 0.0
2018-Jan-09 11:00N 44°43' E 037°50'0 0.2
2018-Jan-09 10:31N 44°43' E 037°50'1 2.5
2018-Jan-09 10:01N 44°41' E 037°50'1 2.4
2018-Jan-09 09:30N 44°41' E 037°52'0 0.0
2018-Jan-09 09:00N 44°41' E 037°52'0 0.0
2018-Jan-09 08:30N 44°41' E 037°52'0 0.0
2018-Jan-09 08:01N 44°41' E 037°52'0 0.0
2018-Jan-09 07:30N 44°41' E 037°52'0 0.0
2018-Jan-09 07:00N 44°41' E 037°52'0 0.0
2018-Jan-09 06:31N 44°41' E 037°52'0 0.0
2018-Jan-09 06:01N 44°41' E 037°52'1 2.7
2018-Jan-09 05:30N 44°42' E 037°50'0 0.0
2018-Jan-09 05:01N 44°42' E 037°50'0 0.5
2018-Jan-09 04:30N 44°42' E 037°50'1 2.0
2018-Jan-09 04:00N 44°41' E 037°50'0 0.5
2018-Jan-09 03:30N 44°41' E 037°50'2 1.0
2018-Jan-09 01:48N 44°42' E 037°48'0 0.0
2018-Jan-09 01:30N 44°42' E 037°48'0 0.0
2018-Jan-09 01:00N 44°42' E 037°48'0 0.0
2018-Jan-09 00:30N 44°42' E 037°48'0 0.0
2018-Jan-09 00:00N 44°42' E 037°48'0 0.0
2018-Jan-08 23:30N 44°42' E 037°48'0 0.0
2018-Jan-08 23:00N 44°42' E 037°48'0 0.0
2018-Jan-08 22:30N 44°42' E 037°48'0 0.0
2018-Jan-08 22:00N 44°42' E 037°48'0 0.0
2018-Jan-08 21:30N 44°42' E 037°48'0 0.0
2018-Jan-08 21:00N 44°42' E 037°48'0 0.0
2018-Jan-08 20:30N 44°42' E 037°48'0 0.0
2018-Jan-08 20:00N 44°42' E 037°48'0 0.0
2018-Jan-08 19:30N 44°42' E 037°48'0 0.0
2018-Jan-08 19:00N 44°42' E 037°48'0 0.0
2018-Jan-08 18:30N 44°42' E 037°48'0 0.0
2018-Jan-08 18:00N 44°42' E 037°48'0 0.0
2018-Jan-08 17:30N 44°42' E 037°48'0 0.0
2018-Jan-08 17:00N 44°42' E 037°48'0 0.0
2018-Jan-08 16:30N 44°42' E 037°48'0 0.0
2018-Jan-08 16:00N 44°42' E 037°48'0 0.0
2018-Jan-08 15:30N 44°42' E 037°48'0 0.0
2018-Jan-08 15:00N 44°42' E 037°48'0 0.0
2018-Jan-08 14:31N 44°42' E 037°48'0 0.0
2018-Jan-08 14:00N 44°42' E 037°48'0 0.0
2018-Jan-08 13:30N 44°42' E 037°48'0 0.0
2018-Jan-08 13:00N 44°42' E 037°48'0 0.0
2018-Jan-08 12:30N 44°42' E 037°48'  

Dump ship's entire track history